createdAt,value
2019-05-07T00:04:00.000Z,8.0
2019-05-07T00:09:00.000Z,8.0
2019-05-07T00:14:00.000Z,7.9
2019-05-07T00:20:00.000Z,7.9
2019-05-07T00:25:00.000Z,7.8
2019-05-07T00:30:00.000Z,7.8
2019-05-07T00:35:00.000Z,7.8
2019-05-07T00:40:00.000Z,7.8
2019-05-07T00:45:00.000Z,7.8
2019-05-07T00:50:00.000Z,7.7
2019-05-07T00:55:00.000Z,7.7
2019-05-07T01:00:00.000Z,7.6
2019-05-07T01:05:00.000Z,7.6
2019-05-07T01:10:00.000Z,7.6
2019-05-07T01:15:00.000Z,7.6
2019-05-07T01:20:00.000Z,7.5
2019-05-07T01:25:00.000Z,7.5
2019-05-07T01:30:00.000Z,7.5
2019-05-07T01:35:00.000Z,7.5
2019-05-07T01:40:00.000Z,7.5
2019-05-07T01:45:00.000Z,7.5
2019-05-07T01:50:00.000Z,7.5
2019-05-07T01:55:00.000Z,7.5
2019-05-07T02:00:00.000Z,7.5
2019-05-07T02:05:00.000Z,7.5
2019-05-07T02:10:00.000Z,7.4
2019-05-07T02:15:00.000Z,7.4
2019-05-07T02:21:00.000Z,7.4
2019-05-07T02:26:00.000Z,7.4
2019-05-07T02:31:00.000Z,7.3
2019-05-07T02:36:00.000Z,7.3
2019-05-07T02:41:00.000Z,7.3
2019-05-07T02:46:00.000Z,7.3
2019-05-07T02:51:00.000Z,7.3
2019-05-07T02:56:00.000Z,7.2
2019-05-07T03:01:00.000Z,7.0
2019-05-07T03:06:00.000Z,7.0
2019-05-07T03:11:00.000Z,6.9
2019-05-07T03:16:00.000Z,6.8
2019-05-07T03:21:00.000Z,6.7
2019-05-07T03:26:00.000Z,6.7
2019-05-07T03:31:00.000Z,6.7
2019-05-07T03:36:00.000Z,6.7
2019-05-07T03:41:00.000Z,6.7
2019-05-07T03:46:00.000Z,6.7
2019-05-07T03:52:00.000Z,6.7
2019-05-07T03:57:00.000Z,6.7
2019-05-07T04:02:00.000Z,6.7
2019-05-07T04:07:00.000Z,6.7
2019-05-07T04:12:00.000Z,6.7
2019-05-07T04:17:00.000Z,6.7
2019-05-07T04:22:00.000Z,6.6
2019-05-07T04:27:00.000Z,6.6
2019-05-07T04:32:00.000Z,6.5
2019-05-07T04:37:00.000Z,6.5
2019-05-07T04:42:00.000Z,6.5
2019-05-07T04:47:00.000Z,6.5
2019-05-07T04:52:00.000Z,6.6
2019-05-07T04:57:00.000Z,6.7
2019-05-07T05:02:00.000Z,6.8
2019-05-07T05:07:00.000Z,7.0
2019-05-07T05:12:00.000Z,7.2
2019-05-07T05:17:00.000Z,7.4
2019-05-07T05:22:00.000Z,7.6
2019-05-07T05:27:00.000Z,8.0
2019-05-07T05:32:00.000Z,8.1
2019-05-07T05:38:00.000Z,8.4
2019-05-07T05:43:00.000Z,8.6
2019-05-07T05:48:00.000Z,8.9
2019-05-07T05:53:00.000Z,9.0
2019-05-07T05:58:00.000Z,9.2
2019-05-07T06:03:00.000Z,9.3
2019-05-07T06:08:00.000Z,9.3
2019-05-07T06:13:00.000Z,9.4
2019-05-07T06:18:00.000Z,9.5
2019-05-07T06:23:00.000Z,9.6
2019-05-07T06:28:00.000Z,9.7
2019-05-07T06:33:00.000Z,9.9
2019-05-07T06:38:00.000Z,10.1
2019-05-07T06:43:00.000Z,10.2
2019-05-07T06:48:00.000Z,10.3
2019-05-07T06:53:00.000Z,10.3
2019-05-07T06:58:00.000Z,10.4
2019-05-07T07:03:00.000Z,10.4
2019-05-07T07:08:00.000Z,10.3
2019-05-07T07:13:00.000Z,10.4
2019-05-07T07:18:00.000Z,10.9
2019-05-07T07:23:00.000Z,11.6
2019-05-07T07:28:00.000Z,12.2
2019-05-07T07:33:00.000Z,12.7
2019-05-07T07:38:00.000Z,13.2
2019-05-07T07:44:00.000Z,13.7
2019-05-07T07:49:00.000Z,13.9
2019-05-07T07:54:00.000Z,14.1
2019-05-07T07:59:00.000Z,14.8
2019-05-07T08:04:00.000Z,15.6
2019-05-07T08:09:00.000Z,15.1
2019-05-07T08:14:00.000Z,14.4
2019-05-07T08:19:00.000Z,14.1
2019-05-07T08:24:00.000Z,13.6
2019-05-07T08:29:00.000Z,13.4
2019-05-07T08:34:00.000Z,13.1
2019-05-07T08:39:00.000Z,13.2
2019-05-07T08:44:00.000Z,13.1
2019-05-07T08:49:00.000Z,12.9
2019-05-07T08:54:00.000Z,12.9
2019-05-07T08:59:00.000Z,12.7
2019-05-07T09:05:00.000Z,12.5
2019-05-07T09:10:00.000Z,12.5
2019-05-07T09:15:00.000Z,12.3
2019-05-07T09:20:00.000Z,12.3
2019-05-07T09:25:00.000Z,12.4
2019-05-07T09:30:00.000Z,12.5
2019-05-07T09:35:00.000Z,12.6
2019-05-07T09:40:00.000Z,12.5
2019-05-07T09:45:00.000Z,12.6
2019-05-07T09:50:00.000Z,12.6
2019-05-07T09:55:00.000Z,12.5
2019-05-07T10:00:00.000Z,12.5
2019-05-07T10:05:00.000Z,12.4
2019-05-07T10:10:00.000Z,12.3
2019-05-07T10:15:00.000Z,12.0
2019-05-07T10:20:00.000Z,11.9
2019-05-07T10:25:00.000Z,11.9
2019-05-07T10:30:00.000Z,12.1
2019-05-07T10:35:00.000Z,12.4
2019-05-07T10:40:00.000Z,12.7
2019-05-07T10:45:00.000Z,13.5
2019-05-07T10:50:00.000Z,14.1
2019-05-07T10:55:00.000Z,14.7
2019-05-07T11:00:00.000Z,15.1
2019-05-07T11:05:00.000Z,15.2
2019-05-07T11:10:00.000Z,14.6
2019-05-07T11:15:00.000Z,14.0
2019-05-07T11:20:00.000Z,13.8
2019-05-07T11:25:00.000Z,14.2
2019-05-07T11:30:00.000Z,14.0
2019-05-07T11:35:00.000Z,14.1
2019-05-07T11:40:00.000Z,14.5
2019-05-07T11:45:00.000Z,14.6
2019-05-07T11:51:00.000Z,14.6
2019-05-07T11:56:00.000Z,14.4
2019-05-07T12:01:00.000Z,14.0
2019-05-07T12:06:00.000Z,14.2
2019-05-07T12:11:00.000Z,14.8
2019-05-07T12:16:00.000Z,14.6
2019-05-07T12:21:00.000Z,15.0
2019-05-07T12:26:00.000Z,15.5
2019-05-07T12:31:00.000Z,15.5
2019-05-07T12:36:00.000Z,15.4
2019-05-07T12:41:00.000Z,15.7
2019-05-07T12:46:00.000Z,15.6
2019-05-07T12:51:00.000Z,15.8
2019-05-07T12:56:00.000Z,16.2
2019-05-07T13:01:00.000Z,16.4
2019-05-07T13:06:00.000Z,16.6
2019-05-07T13:11:00.000Z,16.7
2019-05-07T13:16:00.000Z,16.8
2019-05-07T13:21:00.000Z,16.9
2019-05-07T13:26:00.000Z,16.8
2019-05-07T13:31:00.000Z,16.6
2019-05-07T13:36:00.000Z,16.3
2019-05-07T13:41:00.000Z,16.5
2019-05-07T13:46:00.000Z,16.6
2019-05-07T13:51:00.000Z,16.5
2019-05-07T13:57:00.000Z,16.7
2019-05-07T14:02:00.000Z,16.8
2019-05-07T14:07:00.000Z,17.0
2019-05-07T14:12:00.000Z,17.1
2019-05-07T14:17:00.000Z,17.2
2019-05-07T14:22:00.000Z,17.1
2019-05-07T14:27:00.000Z,16.7
2019-05-07T14:32:00.000Z,16.4
2019-05-07T14:37:00.000Z,16.4
2019-05-07T14:42:00.000Z,16.3
2019-05-07T14:47:00.000Z,16.2
2019-05-07T14:52:00.000Z,16.2
2019-05-07T14:57:00.000Z,15.9
2019-05-07T15:02:00.000Z,15.6
2019-05-07T15:07:00.000Z,15.4
2019-05-07T15:12:00.000Z,15.3
2019-05-07T15:17:00.000Z,15.0
2019-05-07T15:22:00.000Z,14.5
2019-05-07T15:27:00.000Z,14.1
2019-05-07T15:32:00.000Z,13.9
2019-05-07T15:37:00.000Z,13.6
2019-05-07T15:42:00.000Z,13.5
2019-05-07T15:47:00.000Z,13.4
2019-05-07T15:52:00.000Z,13.6
2019-05-07T15:57:00.000Z,13.7
2019-05-07T16:02:00.000Z,13.7
2019-05-07T16:08:00.000Z,13.7
2019-05-07T16:13:00.000Z,13.7
2019-05-07T16:18:00.000Z,13.7
2019-05-07T16:23:00.000Z,13.8
2019-05-07T16:28:00.000Z,13.8
2019-05-07T16:33:00.000Z,13.8
2019-05-07T16:38:00.000Z,13.7
2019-05-07T16:43:00.000Z,13.7
2019-05-07T16:48:00.000Z,13.7
2019-05-07T16:53:00.000Z,13.6
2019-05-07T16:58:00.000Z,13.6
2019-05-07T17:03:00.000Z,13.5
2019-05-07T17:08:00.000Z,13.5
2019-05-07T17:13:00.000Z,13.5
2019-05-07T17:18:00.000Z,13.5
2019-05-07T17:23:00.000Z,13.4
2019-05-07T17:28:00.000Z,13.3
2019-05-07T17:33:00.000Z,13.3
2019-05-07T17:38:00.000Z,13.2
2019-05-07T17:43:00.000Z,13.2
2019-05-07T17:48:00.000Z,13.1
2019-05-07T17:53:00.000Z,13.0
2019-05-07T17:59:00.000Z,12.9
2019-05-07T18:04:00.000Z,12.9
2019-05-07T18:09:00.000Z,12.8
2019-05-07T18:14:00.000Z,12.8
2019-05-07T18:19:00.000Z,12.7
2019-05-07T18:24:00.000Z,12.6
2019-05-07T18:29:00.000Z,12.6
2019-05-07T18:34:00.000Z,12.6
2019-05-07T18:39:00.000Z,12.6
2019-05-07T18:44:00.000Z,12.6
2019-05-07T18:49:00.000Z,12.6
2019-05-07T18:54:00.000Z,12.6
2019-05-07T18:59:00.000Z,12.6
2019-05-07T19:04:00.000Z,12.6
2019-05-07T19:09:00.000Z,12.6
2019-05-07T19:14:00.000Z,12.5
2019-05-07T19:19:00.000Z,12.4
2019-05-07T19:24:00.000Z,12.3
2019-05-07T19:29:00.000Z,12.3
2019-05-07T19:34:00.000Z,12.2
2019-05-07T19:39:00.000Z,12.1
2019-05-07T19:44:00.000Z,12.0
2019-05-07T19:49:00.000Z,11.9
2019-05-07T19:54:00.000Z,11.9
2019-05-07T20:00:00.000Z,11.9
2019-05-07T20:05:00.000Z,11.8
2019-05-07T20:10:00.000Z,11.8
2019-05-07T20:15:00.000Z,11.7
2019-05-07T20:20:00.000Z,11.7
2019-05-07T20:25:00.000Z,11.6
2019-05-07T20:30:00.000Z,11.5
2019-05-07T20:35:00.000Z,11.3
2019-05-07T20:40:00.000Z,11.1
2019-05-07T20:45:00.000Z,11.1
2019-05-07T20:50:00.000Z,11.0
2019-05-07T20:55:00.000Z,10.9
2019-05-07T21:00:00.000Z,10.7
2019-05-07T21:05:00.000Z,10.7
2019-05-07T21:10:00.000Z,10.5
2019-05-07T21:15:00.000Z,10.5
2019-05-07T21:20:00.000Z,10.4
2019-05-07T21:25:00.000Z,10.3
2019-05-07T21:30:00.000Z,10.3
2019-05-07T21:35:00.000Z,10.3
2019-05-07T21:40:00.000Z,10.3
2019-05-07T21:45:00.000Z,10.3
2019-05-07T21:50:00.000Z,10.2
2019-05-07T21:55:00.000Z,10.2
2019-05-07T22:01:00.000Z,10.2
2019-05-07T22:06:00.000Z,10.1
2019-05-07T22:11:00.000Z,10.1
2019-05-07T22:16:00.000Z,10.0
2019-05-07T22:21:00.000Z,9.9
2019-05-07T22:26:00.000Z,9.9
2019-05-07T22:31:00.000Z,9.8
2019-05-07T22:36:00.000Z,9.7
2019-05-07T22:41:00.000Z,9.6
2019-05-07T22:46:00.000Z,9.5
2019-05-07T22:51:00.000Z,9.4
2019-05-07T22:56:00.000Z,9.3
2019-05-07T23:01:00.000Z,9.2
2019-05-07T23:06:00.000Z,9.1
2019-05-07T23:11:00.000Z,9.1
2019-05-07T23:16:00.000Z,9.0
2019-05-07T23:21:00.000Z,9.1
2019-05-07T23:26:00.000Z,9.1
2019-05-07T23:31:00.000Z,9.0
2019-05-07T23:36:00.000Z,9.0
2019-05-07T23:41:00.000Z,8.9
2019-05-07T23:46:00.000Z,8.8
2019-05-07T23:51:00.000Z,8.8
2019-05-07T23:56:00.000Z,8.8
